createdAt,value
2017-09-23T00:02:04.564Z,81.40
2017-09-23T00:04:32.244Z,80.60
2017-09-23T00:06:59.909Z,81.10
2017-09-23T00:09:27.581Z,81.30
2017-09-23T00:11:55.161Z,81.20
2017-09-23T00:14:23.521Z,81.60
2017-09-23T00:16:51.120Z,81.60
2017-09-23T00:19:18.687Z,81.70
2017-09-23T00:21:46.284Z,81.80
2017-09-23T00:24:13.854Z,82.00
2017-09-23T00:26:41.444Z,82.20
2017-09-23T00:29:09.779Z,83.30
2017-09-23T00:31:37.759Z,83.20
2017-09-23T00:34:06.148Z,83.60
2017-09-23T00:36:33.728Z,83.60
2017-09-23T00:39:03.828Z,84.50
2017-09-23T00:41:31.405Z,84.40
2017-09-23T00:43:59.769Z,85.10
2017-09-23T00:46:27.348Z,85.00
2017-09-23T00:48:59.404Z,85.30
2017-09-23T00:51:27.061Z,85.20
2017-09-23T00:53:54.892Z,85.20
2017-09-23T00:56:22.464Z,85.30
2017-09-23T00:58:50.031Z,85.80
2017-09-23T01:01:17.665Z,85.70
2017-09-23T01:03:45.240Z,85.90
2017-09-23T01:06:12.936Z,85.80
2017-09-23T01:08:41.303Z,86.40
2017-09-23T01:11:10.400Z,86.80
2017-09-23T01:13:37.968Z,86.80
2017-09-23T01:16:05.564Z,87.10
2017-09-23T01:18:33.145Z,87.20
2017-09-23T01:21:03.578Z,88.30
2017-09-23T01:23:31.390Z,88.20
2017-09-23T01:26:00.026Z,88.70
2017-09-23T01:28:27.995Z,88.60
2017-09-23T01:30:56.682Z,89.20
2017-09-23T01:33:24.299Z,89.30
2017-09-23T01:35:52.684Z,89.10
2017-09-23T01:38:21.049Z,88.80
2017-09-23T01:40:49.392Z,89.10
2017-09-23T01:43:16.980Z,89.10
2017-09-23T01:45:44.548Z,89.50
2017-09-23T01:48:12.928Z,90.10
2017-09-23T01:50:42.011Z,90.00
2017-09-23T01:53:10.396Z,90.30
2017-09-23T01:55:37.963Z,90.30
2017-09-23T01:58:05.627Z,90.00
2017-09-23T02:00:33.968Z,89.50
2017-09-23T02:03:02.979Z,89.80
2017-09-23T02:05:30.581Z,89.80
2017-09-23T02:07:58.917Z,90.40
2017-09-23T02:10:26.508Z,90.10
2017-09-23T02:12:54.843Z,90.80
2017-09-23T02:15:22.431Z,90.70
2017-09-23T02:17:50.000Z,91.10
2017-09-23T02:20:19.124Z,90.80
2017-09-23T02:22:46.689Z,90.80
2017-09-23T02:25:14.257Z,90.70
2017-09-23T02:27:41.875Z,90.70
2017-09-23T02:30:10.512Z,90.60
2017-09-23T02:32:38.124Z,90.60
2017-09-23T02:35:06.460Z,90.90
2017-09-23T02:37:34.053Z,90.90
2017-09-23T02:40:04.049Z,90.90
2017-09-23T02:42:31.664Z,90.90
2017-09-23T02:45:00.924Z,90.80
2017-09-23T02:47:28.643Z,90.80
2017-09-23T02:49:56.991Z,90.50
2017-09-23T02:52:25.335Z,90.70
2017-09-23T02:54:52.921Z,90.70
2017-09-23T02:57:20.500Z,91.00
2017-09-23T02:59:49.248Z,91.80
2017-09-23T03:02:16.836Z,91.80
2017-09-23T03:04:44.499Z,91.70
2017-09-23T03:07:12.856Z,91.50
2017-09-23T03:09:40.424Z,91.50
2017-09-23T03:12:08.016Z,91.80
2017-09-23T03:14:36.355Z,91.20
2017-09-23T03:17:04.140Z,91.20
2017-09-23T03:19:33.223Z,90.60
2017-09-23T03:22:02.743Z,90.30
2017-09-23T03:24:30.328Z,90.30
2017-09-23T03:26:58.668Z,90.70
2017-09-23T03:29:26.265Z,90.70
2017-09-23T03:31:54.601Z,91.50
2017-09-23T03:34:22.284Z,92.00
2017-09-23T03:36:49.859Z,91.20
2017-09-23T03:39:18.220Z,91.20
2017-09-23T03:41:45.804Z,91.20
2017-09-23T03:44:14.179Z,90.80
2017-09-23T03:46:42.516Z,91.00
2017-09-23T03:49:10.508Z,90.90
2017-09-23T03:51:38.843Z,91.60
2017-09-23T03:54:06.420Z,91.60
2017-09-23T03:56:34.016Z,92.00
2017-09-23T03:59:03.896Z,92.10
2017-09-23T04:01:31.488Z,92.10
2017-09-23T04:03:59.148Z,92.20
2017-09-23T04:06:26.815Z,92.50
2017-09-23T04:08:54.473Z,92.90
2017-09-23T04:11:23.568Z,93.20
2017-09-23T04:13:51.128Z,93.20
2017-09-23T04:16:18.739Z,93.10
2017-09-23T04:18:46.308Z,93.10
2017-09-23T04:21:13.885Z,93.00
2017-09-23T04:23:41.576Z,93.10
2017-09-23T04:26:09.914Z,93.20
2017-09-23T04:28:37.520Z,93.20
2017-09-23T04:31:05.184Z,93.20
2017-09-23T04:33:32.955Z,93.40
2017-09-23T04:36:02.832Z,93.00
2017-09-23T04:38:30.397Z,93.00
2017-09-23T04:40:58.071Z,92.90
2017-09-23T04:43:25.636Z,92.60
2017-09-23T04:45:53.220Z,92.50
2017-09-23T04:48:21.582Z,92.20
2017-09-23T04:50:49.964Z,92.10
2017-09-23T04:53:17.532Z,92.10
2017-09-23T04:55:45.116Z,91.90
2017-09-23T04:58:13.449Z,91.70
2017-09-23T05:00:41.228Z,91.60
2017-09-23T05:03:08.788Z,91.10
2017-09-23T05:05:37.115Z,91.20
2017-09-23T05:08:04.731Z,91.30
2017-09-23T05:10:32.296Z,91.20
2017-09-23T05:13:01.577Z,91.10
2017-09-23T05:15:29.140Z,91.10
2017-09-23T05:17:56.811Z,90.70
2017-09-23T05:20:24.389Z,90.30
2017-09-23T05:22:52.776Z,90.10
2017-09-23T05:25:21.345Z,89.80
2017-09-23T05:27:49.684Z,88.80
2017-09-23T05:30:17.272Z,88.80
2017-09-23T05:32:44.839Z,88.60
2017-09-23T05:35:12.504Z,88.10
2017-09-23T05:37:41.592Z,87.50
2017-09-23T05:40:09.183Z,87.40
2017-09-23T05:42:37.644Z,86.50
2017-09-23T05:45:05.309Z,86.50
2017-09-23T05:47:32.880Z,86.50
2017-09-23T05:50:02.780Z,85.90
2017-09-23T05:52:30.356Z,85.80
2017-09-23T05:54:58.864Z,86.60
2017-09-23T05:57:26.438Z,86.60
2017-09-23T05:59:54.331Z,87.20
2017-09-23T06:02:21.908Z,87.00
2017-09-23T06:04:49.572Z,86.10
2017-09-23T06:07:17.945Z,85.40
2017-09-23T06:09:45.520Z,85.40
2017-09-23T06:12:13.991Z,85.90
2017-09-23T06:14:41.662Z,85.30
2017-09-23T06:17:09.265Z,85.20
2017-09-23T06:19:36.880Z,84.50
2017-09-23T06:22:04.479Z,85.30
2017-09-23T06:24:32.100Z,85.10
2017-09-23T06:26:59.687Z,84.80
2017-09-23T06:29:29.001Z,83.80
2017-09-23T06:31:56.630Z,83.70
2017-09-23T06:34:24.208Z,83.10
2017-09-23T06:36:52.540Z,82.80
2017-09-23T06:39:20.576Z,82.80
2017-09-23T06:41:48.143Z,81.40
2017-09-23T06:44:15.740Z,81.30
2017-09-23T06:46:43.312Z,81.00
2017-09-23T06:49:10.911Z,80.40
2017-09-23T06:51:39.251Z,79.90
2017-09-23T06:54:06.892Z,79.90
2017-09-23T06:56:34.464Z,79.40
2017-09-23T06:59:04.523Z,78.30
2017-09-23T07:01:32.860Z,78.00
2017-09-23T07:04:02.068Z,78.00
2017-09-23T07:06:29.665Z,78.30
2017-09-23T07:08:58.045Z,78.30
2017-09-23T07:11:26.400Z,78.00
2017-09-23T07:13:53.972Z,78.00
2017-09-23T07:16:22.313Z,76.50
2017-09-23T07:18:49.904Z,75.70
2017-09-23T07:21:17.491Z,75.70
2017-09-23T07:23:45.088Z,75.30
2017-09-23T07:26:12.656Z,74.70
2017-09-23T07:28:40.248Z,74.40
2017-09-23T07:31:07.913Z,74.60
2017-09-23T07:33:35.508Z,76.00
2017-09-23T07:36:03.852Z,75.50
2017-09-23T07:38:31.508Z,76.00
2017-09-23T07:40:59.079Z,76.80
2017-09-23T07:43:27.456Z,76.10
2017-09-23T07:45:55.025Z,75.40
2017-09-23T07:48:23.365Z,73.80
2017-09-23T07:50:51.060Z,73.70
2017-09-23T07:53:18.628Z,72.50
2017-09-23T07:55:46.983Z,72.50
2017-09-23T07:58:14.597Z,71.80
2017-09-23T08:00:42.201Z,71.40
2017-09-23T08:03:09.768Z,71.00
2017-09-23T08:05:37.376Z,71.40
2017-09-23T08:08:05.166Z,71.50
2017-09-23T08:10:33.032Z,72.30
2017-09-23T08:13:03.312Z,72.70
2017-09-23T08:15:31.284Z,72.60
2017-09-23T08:17:59.293Z,72.60
2017-09-23T08:20:27.988Z,72.40
2017-09-23T08:22:55.951Z,72.30
2017-09-23T08:25:23.823Z,72.40
2017-09-23T08:27:51.800Z,72.30
2017-09-23T08:30:19.797Z,73.10
2017-09-23T08:32:48.152Z,73.20
2017-09-23T08:35:15.744Z,73.20
2017-09-23T08:37:43.400Z,72.80
2017-09-23T08:40:11.060Z,71.20
2017-09-23T08:42:38.628Z,70.90
2017-09-23T08:45:06.234Z,71.70
2017-09-23T08:47:33.824Z,71.90
2017-09-23T08:50:03.868Z,72.80
2017-09-23T08:52:31.439Z,72.80
2017-09-23T08:54:59.796Z,74.30
2017-09-23T08:57:27.372Z,74.30
2017-09-23T08:59:55.947Z,74.80
2017-09-23T09:02:23.612Z,74.10
2017-09-23T09:04:51.205Z,75.00
2017-09-23T09:07:18.844Z,74.60
2017-09-23T09:09:47.217Z,73.90
2017-09-23T09:12:14.832Z,73.90
2017-09-23T09:14:42.409Z,72.70
2017-09-23T09:17:09.990Z,72.70
2017-09-23T09:19:37.585Z,72.20
2017-09-23T09:22:05.925Z,70.80
2017-09-23T09:24:33.614Z,70.80
2017-09-23T09:27:03.707Z,70.00
2017-09-23T09:29:31.303Z,69.40
2017-09-23T09:31:59.642Z,68.30
2017-09-23T09:34:27.238Z,69.00
2017-09-23T09:36:55.571Z,68.80
2017-09-23T09:39:23.160Z,68.90
2017-09-23T09:41:51.501Z,69.90
2017-09-23T09:44:19.096Z,70.00
2017-09-23T09:46:46.660Z,70.30
2017-09-23T09:49:14.397Z,70.00
2017-09-23T09:51:41.968Z,68.80
2017-09-23T09:54:09.537Z,67.90
2017-09-23T09:56:37.209Z,62.60
2017-09-23T09:59:04.784Z,58.80
2017-09-23T10:01:33.172Z,57.50
2017-09-23T10:04:03.036Z,56.60
2017-09-23T10:06:30.604Z,56.60
2017-09-23T10:08:58.270Z,54.00
2017-09-23T10:11:25.840Z,51.70
2017-09-23T10:13:53.435Z,47.50
2017-09-23T10:16:21.016Z,45.40
2017-09-23T10:18:48.604Z,41.80
2017-09-23T10:21:16.172Z,39.00
2017-09-23T10:23:43.774Z,37.50
2017-09-23T10:26:12.116Z,33.60
2017-09-23T10:28:40.096Z,33.60
2017-09-23T10:31:07.664Z,31.10
2017-09-23T10:33:35.324Z,31.00
2017-09-23T10:36:04.828Z,30.50
2017-09-23T10:38:32.488Z,30.50
2017-09-23T10:41:02.618Z,30.40
2017-09-23T10:43:30.191Z,30.20
2017-09-23T10:45:58.760Z,29.90
2017-09-23T10:48:26.604Z,29.90
2017-09-23T10:50:54.284Z,30.10
2017-09-23T10:53:21.856Z,29.50
2017-09-23T10:55:50.201Z,30.00
2017-09-23T10:58:17.998Z,30.00
2017-09-23T11:00:45.571Z,34.00
2017-09-23T11:03:13.941Z,32.60
2017-09-23T11:05:42.304Z,34.10
2017-09-23T11:08:10.210Z,34.00
2017-09-23T11:10:38.548Z,34.50
2017-09-23T11:13:06.224Z,35.10
2017-09-23T11:15:33.885Z,35.70
2017-09-23T11:18:03.815Z,35.70
2017-09-23T11:20:32.188Z,32.90
2017-09-23T11:22:59.758Z,32.80
2017-09-23T11:25:28.215Z,32.20
2017-09-23T11:27:55.884Z,32.20
2017-09-23T11:30:23.484Z,33.60
2017-09-23T11:32:51.064Z,33.10
2017-09-23T11:35:18.773Z,31.40
2017-09-23T11:37:46.344Z,33.80
2017-09-23T11:40:14.727Z,32.00
2017-09-23T11:42:43.066Z,30.10
2017-09-23T11:45:10.639Z,30.10
2017-09-23T11:47:39.005Z,28.20
2017-09-23T11:50:06.583Z,28.20
2017-09-23T11:52:34.179Z,27.90
2017-09-23T11:55:03.856Z,28.90
2017-09-23T11:57:31.524Z,28.80
2017-09-23T11:59:59.860Z,27.20
2017-09-23T12:02:27.432Z,27.20
2017-09-23T12:04:55.125Z,25.90
2017-09-23T12:07:24.240Z,24.60
2017-09-23T12:09:52.580Z,25.20
2017-09-23T12:12:20.160Z,25.20
2017-09-23T12:14:47.759Z,24.50
2017-09-23T12:17:15.388Z,24.90
2017-09-23T12:19:43.005Z,25.30
2017-09-23T12:22:10.612Z,25.00
2017-09-23T12:24:38.254Z,24.30
2017-09-23T12:27:05.827Z,22.50
2017-09-23T12:29:33.597Z,22.50
2017-09-23T12:32:03.617Z,23.20
2017-09-23T12:34:31.200Z,23.10
2017-09-23T12:36:59.563Z,23.60
2017-09-23T12:39:27.904Z,23.30
2017-09-23T12:41:55.591Z,23.30
2017-09-23T12:44:23.932Z,23.10
2017-09-23T12:46:51.552Z,23.10
2017-09-23T12:49:19.917Z,22.30
2017-09-23T12:51:47.580Z,22.30
2017-09-23T12:54:15.171Z,22.80
2017-09-23T12:56:42.804Z,23.70
2017-09-23T12:59:11.287Z,22.80
2017-09-23T13:01:40.384Z,22.80
2017-09-23T13:04:07.953Z,22.90
2017-09-23T13:06:36.419Z,22.90
2017-09-23T13:09:04.025Z,22.90
2017-09-23T13:11:31.643Z,23.20
2017-09-23T13:13:59.223Z,25.10
2017-09-23T13:16:27.792Z,31.90
2017-09-23T13:18:56.124Z,35.50
2017-09-23T13:21:23.697Z,35.40
2017-09-23T13:23:51.297Z,38.80
2017-09-23T13:26:19.633Z,44.10
2017-09-23T13:28:47.335Z,43.70
2017-09-23T13:31:16.432Z,47.80
2017-09-23T13:33:44.027Z,47.70
2017-09-23T13:36:11.712Z,49.10
2017-09-23T13:38:39.300Z,50.40
2017-09-23T13:41:07.697Z,52.00
2017-09-23T13:43:35.460Z,52.00
2017-09-23T13:46:04.742Z,54.00
2017-09-23T13:48:32.317Z,54.00
2017-09-23T13:50:59.904Z,54.50
2017-09-23T13:53:28.246Z,56.20
2017-09-23T13:55:55.832Z,56.10
2017-09-23T13:58:24.165Z,56.40
2017-09-23T14:00:51.754Z,56.40
2017-09-23T14:03:20.857Z,57.20
2017-09-23T14:05:49.216Z,57.50
2017-09-23T14:08:16.792Z,57.40
2017-09-23T14:10:44.375Z,57.30
2017-09-23T14:13:12.704Z,57.90
2017-09-23T14:15:41.237Z,57.80
2017-09-23T14:18:09.564Z,58.10
2017-09-23T14:20:37.156Z,58.10
2017-09-23T14:23:04.719Z,57.80
2017-09-23T14:25:32.319Z,58.30
2017-09-23T14:27:59.940Z,58.60
2017-09-23T14:30:27.536Z,59.30
2017-09-23T14:32:55.169Z,59.20
2017-09-23T14:35:22.868Z,59.40
2017-09-23T14:37:50.440Z,59.70
2017-09-23T14:40:18.012Z,59.70
2017-09-23T14:42:45.720Z,59.80
2017-09-23T14:45:13.292Z,60.10
2017-09-23T14:47:41.678Z,60.80
2017-09-23T14:50:10.021Z,61.40
2017-09-23T14:52:37.612Z,61.40
2017-09-23T14:55:05.972Z,61.60
2017-09-23T14:57:33.564Z,61.40
2017-09-23T15:00:03.122Z,61.40
2017-09-23T15:02:31.520Z,61.30
2017-09-23T15:04:59.088Z,60.50
2017-09-23T15:07:26.680Z,60.70
2017-09-23T15:09:54.252Z,61.20
2017-09-23T15:12:21.820Z,60.40
2017-09-23T15:14:49.417Z,59.80
2017-09-23T15:17:16.992Z,60.10
2017-09-23T15:19:44.735Z,59.80
2017-09-23T15:22:12.316Z,59.90
2017-09-23T15:24:39.909Z,59.40
2017-09-23T15:27:07.480Z,59.00
2017-09-23T15:29:35.096Z,59.00
2017-09-23T15:32:04.692Z,58.00
2017-09-23T15:34:32.364Z,58.10
2017-09-23T15:36:59.965Z,58.40
2017-09-23T15:39:27.549Z,58.30
2017-09-23T15:41:55.142Z,58.00
2017-09-23T15:44:23.524Z,58.70
2017-09-23T15:46:51.187Z,58.70
2017-09-23T15:49:18.856Z,58.30
2017-09-23T15:51:46.431Z,57.90
2017-09-23T15:54:14.796Z,58.70
2017-09-23T15:56:42.363Z,58.70
2017-09-23T15:59:10.723Z,59.70
2017-09-23T16:01:38.292Z,59.10
2017-09-23T16:04:06.668Z,58.70
2017-09-23T16:06:34.236Z,58.70
2017-09-23T16:09:03.849Z,59.10
2017-09-23T16:11:31.437Z,59.10
2017-09-23T16:13:59.001Z,59.40
2017-09-23T16:16:26.633Z,59.40
2017-09-23T16:18:55.044Z,59.70
2017-09-23T16:21:22.637Z,59.40
2017-09-23T16:23:50.323Z,59.60
2017-09-23T16:26:17.993Z,60.00
2017-09-23T16:28:45.670Z,59.80
2017-09-23T16:31:14.036Z,60.90
2017-09-23T16:33:41.596Z,60.80
2017-09-23T16:36:09.261Z,61.20
2017-09-23T16:38:36.927Z,62.20
2017-09-23T16:41:05.284Z,63.70
2017-09-23T16:43:32.853Z,64.10
2017-09-23T16:46:02.095Z,64.40
2017-09-23T16:48:29.656Z,64.90
2017-09-23T16:50:57.399Z,64.80
2017-09-23T16:53:25.735Z,65.30
2017-09-23T16:55:53.304Z,65.10
2017-09-23T16:58:21.355Z,65.50
2017-09-23T17:00:48.951Z,65.90
2017-09-23T17:03:16.625Z,66.40
2017-09-23T17:05:44.991Z,67.50
2017-09-23T17:08:12.568Z,67.50
2017-09-23T17:10:40.936Z,68.90
2017-09-23T17:13:08.596Z,68.40
2017-09-23T17:15:36.266Z,68.80
2017-09-23T17:18:04.032Z,69.50
2017-09-23T17:20:32.431Z,69.80
2017-09-23T17:23:01.681Z,70.20
2017-09-23T17:25:29.268Z,70.20
2017-09-23T17:27:56.827Z,70.80
2017-09-23T17:30:24.413Z,70.90
2017-09-23T17:32:53.588Z,71.70
2017-09-23T17:35:21.181Z,71.70
2017-09-23T17:37:48.769Z,71.60
2017-09-23T17:40:16.334Z,72.10
2017-09-23T17:42:43.920Z,72.40
2017-09-23T17:45:11.600Z,72.70
2017-09-23T17:47:39.951Z,73.50
2017-09-23T17:50:07.520Z,73.40
2017-09-23T17:52:35.192Z,73.70
2017-09-23T17:55:04.772Z,74.50
2017-09-23T17:57:32.336Z,74.40
2017-09-23T18:00:00.025Z,74.40
2017-09-23T18:02:27.592Z,74.60
2017-09-23T18:04:55.180Z,75.10
2017-09-23T18:07:23.527Z,76.10
2017-09-23T18:09:51.117Z,76.00
2017-09-23T18:12:18.688Z,76.20
2017-09-23T18:14:46.316Z,76.70
2017-09-23T18:17:13.884Z,77.00
2017-09-23T18:19:42.248Z,78.10
2017-09-23T18:22:09.816Z,77.20
2017-09-23T18:24:37.424Z,77.60
2017-09-23T18:27:04.992Z,77.70
2017-09-23T18:29:32.556Z,78.00
2017-09-23T18:32:01.836Z,78.40
2017-09-23T18:34:29.456Z,78.40
2017-09-23T18:36:57.046Z,78.60
2017-09-23T18:39:25.399Z,79.00
2017-09-23T18:41:53.060Z,78.90
2017-09-23T18:44:20.640Z,79.00
2017-09-23T18:46:48.996Z,79.10
2017-09-23T18:49:16.568Z,79.10
2017-09-23T18:51:44.953Z,80.70
2017-09-23T18:54:13.608Z,79.90
2017-09-23T18:56:41.173Z,80.40
2017-09-23T18:59:08.960Z,80.70
2017-09-23T19:01:37.304Z,81.80
2017-09-23T19:04:04.895Z,81.20
2017-09-23T19:06:32.552Z,81.60
2017-09-23T19:09:01.070Z,81.90
2017-09-23T19:11:28.644Z,82.20
2017-09-23T19:13:56.257Z,81.90
2017-09-23T19:16:24.596Z,81.30
2017-09-23T19:18:52.168Z,81.30
2017-09-23T19:21:19.760Z,81.20
2017-09-23T19:23:47.329Z,81.50
2017-09-23T19:26:14.980Z,81.60
2017-09-23T19:28:42.552Z,81.90
2017-09-23T19:31:10.912Z,81.90
2017-09-23T19:33:38.483Z,81.90
2017-09-23T19:36:06.863Z,82.50
2017-09-23T19:38:34.529Z,82.50
2017-09-23T19:41:03.956Z,83.20
2017-09-23T19:43:32.296Z,83.50
2017-09-23T19:45:59.868Z,83.50
2017-09-23T19:48:28.223Z,83.80
2017-09-23T19:50:55.792Z,83.80
2017-09-23T19:53:23.404Z,83.70
2017-09-23T19:55:50.978Z,83.90
2017-09-23T19:58:18.587Z,83.70
2017-09-23T20:00:46.152Z,83.50
2017-09-23T20:03:13.745Z,83.30
2017-09-23T20:05:41.316Z,83.40
2017-09-23T20:08:08.912Z,82.80
2017-09-23T20:10:36.501Z,82.20
2017-09-23T20:13:04.896Z,82.80
2017-09-23T20:15:33.224Z,82.70
2017-09-23T20:18:02.945Z,82.40
2017-09-23T20:20:30.545Z,82.30
2017-09-23T20:22:58.880Z,82.00
2017-09-23T20:25:26.468Z,82.10
2017-09-23T20:27:54.817Z,82.40
2017-09-23T20:30:22.508Z,82.40
2017-09-23T20:32:50.088Z,82.30
2017-09-23T20:35:18.450Z,83.20
2017-09-23T20:37:46.020Z,83.10
2017-09-23T20:40:14.388Z,83.70
2017-09-23T20:42:41.965Z,83.70
2017-09-23T20:45:10.361Z,84.00
2017-09-23T20:47:37.932Z,84.00
2017-09-23T20:50:05.508Z,84.10
2017-09-23T20:52:33.097Z,84.30
2017-09-23T20:55:02.695Z,84.90
2017-09-23T20:57:30.380Z,84.20
2017-09-23T20:59:57.961Z,83.80
2017-09-23T21:02:26.323Z,83.50
2017-09-23T21:04:53.892Z,83.50
2017-09-23T21:07:22.272Z,83.10
2017-09-23T21:09:50.612Z,82.90
2017-09-23T21:12:18.225Z,82.80
2017-09-23T21:14:46.581Z,82.40
2017-09-23T21:17:14.152Z,82.40
2017-09-23T21:19:42.955Z,82.10
2017-09-23T21:22:11.296Z,82.00
2017-09-23T21:24:40.508Z,82.00
2017-09-23T21:27:09.589Z,82.00
2017-09-23T21:29:37.184Z,82.00
2017-09-23T21:32:05.552Z,83.40
2017-09-23T21:34:33.908Z,83.60
2017-09-23T21:37:02.901Z,83.20
2017-09-23T21:39:30.583Z,83.20
2017-09-23T21:41:58.240Z,83.00
2017-09-23T21:44:26.089Z,83.00
2017-09-23T21:46:53.664Z,83.60
2017-09-23T21:49:21.336Z,84.10
2017-09-23T21:51:48.929Z,84.20
2017-09-23T21:54:16.500Z,84.20
2017-09-23T21:56:44.117Z,84.00
2017-09-23T21:59:11.688Z,83.80
2017-09-23T22:01:40.051Z,83.90
2017-09-23T22:04:07.615Z,83.90
2017-09-23T22:06:35.229Z,83.90
2017-09-23T22:09:04.765Z,84.00
2017-09-23T22:11:32.340Z,83.80
2017-09-23T22:13:59.935Z,84.00
2017-09-23T22:16:27.503Z,84.00
2017-09-23T22:18:55.095Z,83.90
2017-09-23T22:21:22.688Z,83.90
2017-09-23T22:23:50.638Z,84.00
2017-09-23T22:26:18.320Z,84.70
2017-09-23T22:28:45.933Z,85.00
2017-09-23T22:31:13.499Z,84.90
2017-09-23T22:33:41.104Z,85.10
2017-09-23T22:36:09.465Z,84.90
2017-09-23T22:38:37.037Z,84.80
2017-09-23T22:41:04.632Z,85.00
2017-09-23T22:43:32.205Z,85.30
2017-09-23T22:45:59.800Z,85.50
2017-09-23T22:48:27.368Z,85.70
2017-09-23T22:50:54.960Z,85.20
2017-09-23T22:53:23.296Z,84.90
2017-09-23T22:55:50.884Z,84.90
2017-09-23T22:58:18.456Z,84.70
2017-09-23T23:00:46.840Z,84.20
2017-09-23T23:03:15.172Z,84.30
2017-09-23T23:05:42.744Z,84.10
2017-09-23T23:08:10.436Z,84.20
2017-09-23T23:10:38.005Z,84.30
2017-09-23T23:13:06.364Z,84.30
2017-09-23T23:15:33.936Z,84.20
2017-09-23T23:20:42.543Z,84.30
2017-09-23T23:23:10.128Z,84.40
2017-09-23T23:25:37.700Z,84.50
2017-09-23T23:28:06.073Z,84.00
2017-09-23T23:30:33.664Z,84.00
2017-09-23T23:33:03.723Z,84.30
2017-09-23T23:35:31.410Z,84.20
2017-09-23T23:37:58.976Z,84.20
2017-09-23T23:40:26.631Z,84.10
2017-09-23T23:42:54.288Z,84.00
2017-09-23T23:45:22.644Z,84.00
2017-09-23T23:47:50.232Z,84.10
2017-09-23T23:50:17.849Z,84.20
2017-09-23T23:52:45.413Z,84.30
2017-09-23T23:55:12.988Z,84.20
2017-09-23T23:57:40.581Z,84.30
